sensor_id;sensor_type;location;lat;lon;timestamp;pressure;altitude;pressure_sealevel;temperature;humidity
40730;BME280;26418;50.070;8.436;2022-07-03T00:00:10;100130.59;;;19.57;50.40
40730;BME280;26418;50.070;8.436;2022-07-03T00:02:35;100129.97;;;19.47;50.65
40730;BME280;26418;50.070;8.436;2022-07-03T00:05:01;100129.53;;;19.45;51.24
40730;BME280;26418;50.070;8.436;2022-07-03T00:07:26;100133.00;;;19.42;51.20
40730;BME280;26418;50.070;8.436;2022-07-03T00:09:52;100129.38;;;19.38;51.34
40730;BME280;26418;50.070;8.436;2022-07-03T00:12:17;100133.25;;;19.37;51.64
40730;BME280;26418;50.070;8.436;2022-07-03T00:14:43;100132.56;;;19.40;51.50
40730;BME280;26418;50.070;8.436;2022-07-03T00:17:08;100130.06;;;19.35;51.21
40730;BME280;26418;50.070;8.436;2022-07-03T00:19:34;100121.69;;;19.28;51.79
40730;BME280;26418;50.070;8.436;2022-07-03T00:22:04;100114.44;;;19.20;51.91
40730;BME280;26418;50.070;8.436;2022-07-03T00:24:52;100114.25;;;19.12;52.21
40730;BME280;26418;50.070;8.436;2022-07-03T00:27:20;100110.72;;;19.12;52.55
40730;BME280;26418;50.070;8.436;2022-07-03T00:29:45;100114.69;;;19.14;52.66
40730;BME280;26418;50.070;8.436;2022-07-03T00:32:14;100118.22;;;19.15;52.84
40730;BME280;26418;50.070;8.436;2022-07-03T00:34:43;100120.88;;;19.11;52.94
40730;BME280;26418;50.070;8.436;2022-07-03T00:37:10;100109.38;;;19.06;52.75
40730;BME280;26418;50.070;8.436;2022-07-03T00:39:38;100111.94;;;18.98;53.00
40730;BME280;26418;50.070;8.436;2022-07-03T00:42:05;100106.91;;;19.00;53.28
40730;BME280;26418;50.070;8.436;2022-07-03T00:44:34;100109.56;;;18.97;53.15
40730;BME280;26418;50.070;8.436;2022-07-03T00:47:03;100104.00;;;18.93;53.24
40730;BME280;26418;50.070;8.436;2022-07-03T00:49:31;100105.47;;;18.91;53.29
40730;BME280;26418;50.070;8.436;2022-07-03T00:51:58;100103.22;;;18.93;53.29
40730;BME280;26418;50.070;8.436;2022-07-03T00:54:30;100104.00;;;18.93;53.12
40730;BME280;26418;50.070;8.436;2022-07-03T00:57:00;100107.50;;;18.94;53.10
40730;BME280;26418;50.070;8.436;2022-07-03T00:59:26;100098.84;;;18.92;53.20
40730;BME280;26418;50.070;8.436;2022-07-03T01:01:59;100102.72;;;18.91;53.36
40730;BME280;26418;50.070;8.436;2022-07-03T01:07:07;100106.97;;;18.88;53.53
40730;BME280;26418;50.070;8.436;2022-07-03T01:09:47;100111.72;;;18.91;53.42
40730;BME280;26418;50.070;8.436;2022-07-03T01:12:25;100103.44;;;18.88;53.46
40730;BME280;26418;50.070;8.436;2022-07-03T01:17:39;100104.56;;;18.86;53.51
40730;BME280;26418;50.070;8.436;2022-07-03T01:20:08;100103.34;;;18.84;53.60
40730;BME280;26418;50.070;8.436;2022-07-03T01:22:43;100102.78;;;18.78;53.65
40730;BME280;26418;50.070;8.436;2022-07-03T01:28:16;100107.31;;;18.70;53.82
40730;BME280;26418;50.070;8.436;2022-07-03T01:30:43;100097.41;;;18.66;53.95
40730;BME280;26418;50.070;8.436;2022-07-03T01:33:12;100115.53;;;18.70;54.26
40730;BME280;26418;50.070;8.436;2022-07-03T01:35:46;100108.00;;;18.67;54.31
40730;BME280;26418;50.070;8.436;2022-07-03T01:38:14;100113.75;;;18.62;54.38
40730;BME280;26418;50.070;8.436;2022-07-03T01:40:41;100111.09;;;18.66;54.50
40730;BME280;26418;50.070;8.436;2022-07-03T01:43:10;100104.81;;;18.65;54.62
40730;BME280;26418;50.070;8.436;2022-07-03T01:45:42;100109.41;;;18.61;54.64
40730;BME280;26418;50.070;8.436;2022-07-03T01:48:10;100094.03;;;18.57;54.55
40730;BME280;26418;50.070;8.436;2022-07-03T01:50:37;100076.50;;;18.45;55.03
40730;BME280;26418;50.070;8.436;2022-07-03T01:53:03;100086.69;;;18.61;54.57
40730;BME280;26418;50.070;8.436;2022-07-03T01:55:31;100084.31;;;18.59;54.19
40730;BME280;26418;50.070;8.436;2022-07-03T01:57:57;100090.81;;;18.54;54.31
40730;BME280;26418;50.070;8.436;2022-07-03T02:00:23;100083.19;;;18.48;54.40
40730;BME280;26418;50.070;8.436;2022-07-03T02:03:04;100081.72;;;18.50;54.34
40730;BME280;26418;50.070;8.436;2022-07-03T02:05:45;100080.81;;;18.46;54.36
40730;BME280;26418;50.070;8.436;2022-07-03T02:08:35;100082.22;;;18.40;54.51
40730;BME280;26418;50.070;8.436;2022-07-03T02:11:07;100074.69;;;18.37;54.90
40730;BME280;26418;50.070;8.436;2022-07-03T02:16:18;100066.78;;;18.19;54.97
40730;BME280;26418;50.070;8.436;2022-07-03T02:18:43;100084.59;;;18.26;55.08
40730;BME280;26418;50.070;8.436;2022-07-03T02:21:18;100087.19;;;18.22;55.35
40730;BME280;26418;50.070;8.436;2022-07-03T02:26:41;100084.34;;;18.18;55.78
40730;BME280;26418;50.070;8.436;2022-07-03T02:29:12;100089.03;;;18.18;56.08
40730;BME280;26418;50.070;8.436;2022-07-03T02:31:45;100085.06;;;18.15;55.87
40730;BME280;26418;50.070;8.436;2022-07-03T02:34:16;100072.66;;;18.05;55.84
40730;BME280;26418;50.070;8.436;2022-07-03T02:36:47;100092.81;;;18.13;55.92
40730;BME280;26418;50.070;8.436;2022-07-03T02:39:37;100092.13;;;18.16;55.94
40730;BME280;26418;50.070;8.436;2022-07-03T02:42:10;100084.06;;;18.07;56.15
40730;BME280;26418;50.070;8.436;2022-07-03T02:50:06;100092.53;;;18.02;56.67
40730;BME280;26418;50.070;8.436;2022-07-03T02:57:57;100104.50;;;17.85;57.27
40730;BME280;26418;50.070;8.436;2022-07-03T03:00:33;100102.47;;;17.82;57.42
40730;BME280;26418;50.070;8.436;2022-07-03T03:03:01;100109.41;;;17.80;57.89
40730;BME280;26418;50.070;8.436;2022-07-03T03:08:07;100104.06;;;17.83;57.62
40730;BME280;26418;50.070;8.436;2022-07-03T03:10:39;100101.31;;;17.83;57.79
40730;BME280;26418;50.070;8.436;2022-07-03T03:13:13;100104.50;;;17.85;57.99
40730;BME280;26418;50.070;8.436;2022-07-03T03:15:44;100105.09;;;17.79;58.29
40730;BME280;26418;50.070;8.436;2022-07-03T03:18:21;100103.38;;;17.74;58.40
40730;BME280;26418;50.070;8.436;2022-07-03T03:20:48;100110.66;;;17.70;58.87
40730;BME280;26418;50.070;8.436;2022-07-03T03:23:30;100112.94;;;17.68;59.04
40730;BME280;26418;50.070;8.436;2022-07-03T03:25:58;100109.78;;;17.66;58.90
40730;BME280;26418;50.070;8.436;2022-07-03T03:28:24;100102.25;;;17.63;58.86
40730;BME280;26418;50.070;8.436;2022-07-03T03:30:49;100110.09;;;17.64;58.84
40730;BME280;26418;50.070;8.436;2022-07-03T03:33:16;100114.34;;;17.62;58.99
40730;BME280;26418;50.070;8.436;2022-07-03T03:35:41;100115.72;;;17.55;58.97
40730;BME280;26418;50.070;8.436;2022-07-03T03:38:07;100116.06;;;17.54;59.42
40730;BME280;26418;50.070;8.436;2022-07-03T03:40:33;100122.66;;;17.53;59.34
40730;BME280;26418;50.070;8.436;2022-07-03T03:42:59;100129.84;;;17.57;59.49
40730;BME280;26418;50.070;8.436;2022-07-03T03:45:25;100135.75;;;17.59;59.62
40730;BME280;26418;50.070;8.436;2022-07-03T03:47:51;100126.41;;;17.60;59.66
40730;BME280;26418;50.070;8.436;2022-07-03T03:50:16;100132.22;;;17.59;59.49
40730;BME280;26418;50.070;8.436;2022-07-03T03:52:42;100135.31;;;17.57;59.71
40730;BME280;26418;50.070;8.436;2022-07-03T03:55:08;100139.19;;;17.56;59.84
40730;BME280;26418;50.070;8.436;2022-07-03T03:57:37;100132.91;;;17.56;60.04
40730;BME280;26418;50.070;8.436;2022-07-03T04:00:06;100137.13;;;17.53;60.13
40730;BME280;26418;50.070;8.436;2022-07-03T04:02:32;100127.78;;;17.54;60.19
40730;BME280;26418;50.070;8.436;2022-07-03T04:04:58;100132.13;;;17.55;60.31
40730;BME280;26418;50.070;8.436;2022-07-03T04:07:23;100132.91;;;17.56;60.16
40730;BME280;26418;50.070;8.436;2022-07-03T04:09:48;100138.84;;;17.58;60.29
40730;BME280;26418;50.070;8.436;2022-07-03T04:12:14;100141.22;;;17.59;60.29
40730;BME280;26418;50.070;8.436;2022-07-03T04:14:40;100138.47;;;17.59;60.34
40730;BME280;26418;50.070;8.436;2022-07-03T04:17:05;100136.78;;;17.67;60.13
40730;BME280;26418;50.070;8.436;2022-07-03T04:19:30;100137.56;;;17.68;60.12
40730;BME280;26418;50.070;8.436;2022-07-03T04:21:56;100139.50;;;17.67;60.22
40730;BME280;26418;50.070;8.436;2022-07-03T04:24:22;100142.38;;;17.71;60.39
40730;BME280;26418;50.070;8.436;2022-07-03T04:26:47;100134.63;;;17.73;60.50
40730;BME280;26418;50.070;8.436;2022-07-03T04:29:13;100134.63;;;17.73;60.50
40730;BME280;26418;50.070;8.436;2022-07-03T04:31:39;100136.66;;;17.76;60.73
40730;BME280;26418;50.070;8.436;2022-07-03T04:34:04;100134.38;;;17.78;60.84
40730;BME280;26418;50.070;8.436;2022-07-03T04:36:29;100141.19;;;17.84;60.93
40730;BME280;26418;50.070;8.436;2022-07-03T04:38:55;100146.44;;;17.89;60.89
40730;BME280;26418;50.070;8.436;2022-07-03T04:41:20;100138.00;;;17.95;60.92
40730;BME280;26418;50.070;8.436;2022-07-03T04:43:46;100144.41;;;17.99;60.60
40730;BME280;26418;50.070;8.436;2022-07-03T04:46:11;100146.91;;;18.04;60.41
40730;BME280;26418;50.070;8.436;2022-07-03T04:48:37;100145.88;;;18.09;60.32
40730;BME280;26418;50.070;8.436;2022-07-03T04:51:02;100149.53;;;18.13;60.42
40730;BME280;26418;50.070;8.436;2022-07-03T04:53:28;100133.41;;;18.11;60.33
40730;BME280;26418;50.070;8.436;2022-07-03T04:55:53;100141.06;;;18.18;60.33
40730;BME280;26418;50.070;8.436;2022-07-03T04:58:18;100142.84;;;18.26;60.35
40730;BME280;26418;50.070;8.436;2022-07-03T05:00:44;100142.59;;;18.31;60.16
40730;BME280;26418;50.070;8.436;2022-07-03T05:03:11;100141.56;;;18.36;60.05
40730;BME280;26418;50.070;8.436;2022-07-03T05:05:37;100142.47;;;18.40;59.75
40730;BME280;26418;50.070;8.436;2022-07-03T05:08:02;100135.75;;;18.37;59.45
40730;BME280;26418;50.070;8.436;2022-07-03T05:10:28;100141.16;;;18.50;59.09
40730;BME280;26418;50.070;8.436;2022-07-03T05:12:53;100153.31;;;18.65;58.52
40730;BME280;26418;50.070;8.436;2022-07-03T05:15:19;100143.88;;;18.62;58.27
40730;BME280;26418;50.070;8.436;2022-07-03T05:17:45;100148.72;;;18.69;58.69
40730;BME280;26418;50.070;8.436;2022-07-03T05:20:12;100172.03;;;18.91;58.96
40730;BME280;26418;50.070;8.436;2022-07-03T05:22:50;100160.94;;;19.00;58.33
40730;BME280;26418;50.070;8.436;2022-07-03T05:25:16;100158.28;;;19.04;57.88
40730;BME280;26418;50.070;8.436;2022-07-03T05:27:41;100168.03;;;19.17;57.32
40730;BME280;26418;50.070;8.436;2022-07-03T05:30:07;100158.66;;;19.18;57.04
40730;BME280;26418;50.070;8.436;2022-07-03T05:32:32;100154.25;;;19.29;56.88
40730;BME280;26418;50.070;8.436;2022-07-03T05:34:58;100157.63;;;19.39;56.95
40730;BME280;26418;50.070;8.436;2022-07-03T05:37:23;100160.31;;;19.55;56.70
40730;BME280;26418;50.070;8.436;2022-07-03T05:39:48;100160.84;;;19.60;56.57
40730;BME280;26418;50.070;8.436;2022-07-03T05:42:14;100163.75;;;19.68;56.23
40730;BME280;26418;50.070;8.436;2022-07-03T05:44:39;100148.78;;;19.81;56.45
40730;BME280;26418;50.070;8.436;2022-07-03T05:47:05;100163.66;;;19.96;56.40
40730;BME280;26418;50.070;8.436;2022-07-03T05:49:30;100160.78;;;20.08;55.27
40730;BME280;26418;50.070;8.436;2022-07-03T05:51:56;100154.75;;;20.19;54.57
40730;BME280;26418;50.070;8.436;2022-07-03T05:54:21;100158.94;;;20.32;54.94
40730;BME280;26418;50.070;8.436;2022-07-03T05:56:46;100141.75;;;20.35;52.95
40730;BME280;26418;50.070;8.436;2022-07-03T05:59:12;100142.78;;;20.50;52.40
40730;BME280;26418;50.070;8.436;2022-07-03T06:01:37;100157.19;;;20.63;52.55
40730;BME280;26418;50.070;8.436;2022-07-03T06:04:03;100158.91;;;20.71;52.58
40730;BME280;26418;50.070;8.436;2022-07-03T06:06:28;100154.38;;;20.79;52.58
40730;BME280;26418;50.070;8.436;2022-07-03T06:08:54;100159.69;;;20.92;52.45
40730;BME280;26418;50.070;8.436;2022-07-03T06:11:19;100145.66;;;20.97;51.87
40730;BME280;26418;50.070;8.436;2022-07-03T06:13:45;100161.69;;;21.14;51.18
40730;BME280;26418;50.070;8.436;2022-07-03T06:16:10;100150.63;;;21.11;50.65
40730;BME280;26418;50.070;8.436;2022-07-03T06:18:35;100157.97;;;21.26;50.98
40730;BME280;26418;50.070;8.436;2022-07-03T06:21:01;100164.72;;;21.32;50.78
40730;BME280;26418;50.070;8.436;2022-07-03T06:23:26;100158.50;;;21.35;50.72
40730;BME280;26418;50.070;8.436;2022-07-03T06:25:52;100156.59;;;21.40;50.82
40730;BME280;26418;50.070;8.436;2022-07-03T06:28:17;100155.53;;;21.48;50.82
40730;BME280;26418;50.070;8.436;2022-07-03T06:30:43;100154.06;;;21.54;50.74
40730;BME280;26418;50.070;8.436;2022-07-03T06:33:08;100152.34;;;21.69;50.46
40730;BME280;26418;50.070;8.436;2022-07-03T06:35:33;100156.84;;;21.81;50.62
40730;BME280;26418;50.070;8.436;2022-07-03T06:38:02;100155.78;;;21.89;50.60
40730;BME280;26418;50.070;8.436;2022-07-03T06:40:28;100144.03;;;21.92;50.74
40730;BME280;26418;50.070;8.436;2022-07-03T06:42:53;100155.97;;;22.04;50.24
40730;BME280;26418;50.070;8.436;2022-07-03T06:45:28;100153.28;;;22.07;50.37
40730;BME280;26418;50.070;8.436;2022-07-03T06:47:53;100138.25;;;22.01;50.52
40730;BME280;26418;50.070;8.436;2022-07-03T06:50:19;100153.44;;;22.18;50.62
40730;BME280;26418;50.070;8.436;2022-07-03T06:52:44;100159.84;;;22.29;50.28
40730;BME280;26418;50.070;8.436;2022-07-03T06:55:10;100163.13;;;22.39;50.33
40730;BME280;26418;50.070;8.436;2022-07-03T06:57:37;100141.38;;;22.30;49.85
40730;BME280;26418;50.070;8.436;2022-07-03T07:00:04;100160.84;;;22.44;49.98
40730;BME280;26418;50.070;8.436;2022-07-03T07:02:30;100160.47;;;22.46;50.39
40730;BME280;26418;50.070;8.436;2022-07-03T07:04:55;100165.31;;;22.56;50.00
40730;BME280;26418;50.070;8.436;2022-07-03T07:07:21;100172.03;;;22.59;50.57
40730;BME280;26418;50.070;8.436;2022-07-03T07:09:46;100154.22;;;22.49;50.35
40730;BME280;26418;50.070;8.436;2022-07-03T07:12:12;100159.44;;;22.58;50.37
40730;BME280;26418;50.070;8.436;2022-07-03T07:14:37;100175.34;;;22.72;50.37
40730;BME280;26418;50.070;8.436;2022-07-03T07:17:03;100164.66;;;22.67;49.82
40730;BME280;26418;50.070;8.436;2022-07-03T07:19:29;100168.66;;;22.73;49.44
40730;BME280;26418;50.070;8.436;2022-07-03T07:21:55;100174.34;;;22.87;49.54
40730;BME280;26418;50.070;8.436;2022-07-03T07:24:20;100176.00;;;22.96;49.56
40730;BME280;26418;50.070;8.436;2022-07-03T07:26:45;100171.28;;;23.00;49.62
40730;BME280;26418;50.070;8.436;2022-07-03T07:29:12;100151.59;;;23.01;49.40
40730;BME280;26418;50.070;8.436;2022-07-03T07:31:37;100172.75;;;23.24;49.04
40730;BME280;26418;50.070;8.436;2022-07-03T07:34:03;100150.66;;;23.24;48.95
40730;BME280;26418;50.070;8.436;2022-07-03T07:36:30;100147.97;;;23.31;48.58
40730;BME280;26418;50.070;8.436;2022-07-03T07:38:56;100143.69;;;23.41;48.69
40730;BME280;26418;50.070;8.436;2022-07-03T07:41:22;100162.06;;;23.71;47.97
40730;BME280;26418;50.070;8.436;2022-07-03T07:43:47;100165.31;;;23.88;47.59
40730;BME280;26418;50.070;8.436;2022-07-03T07:46:12;100164.59;;;23.98;46.88
40730;BME280;26418;50.070;8.436;2022-07-03T07:48:38;100162.25;;;24.04;47.03
40730;BME280;26418;50.070;8.436;2022-07-03T07:51:04;100158.75;;;24.07;46.68
40730;BME280;26418;50.070;8.436;2022-07-03T07:53:30;100160.78;;;24.17;46.49
40730;BME280;26418;50.070;8.436;2022-07-03T07:55:55;100152.50;;;24.24;45.72
40730;BME280;26418;50.070;8.436;2022-07-03T07:58:20;100139.13;;;24.30;45.57
40730;BME280;26418;50.070;8.436;2022-07-03T08:00:47;100160.91;;;24.57;45.04
40730;BME280;26418;50.070;8.436;2022-07-03T08:03:31;100151.91;;;24.85;45.14
40730;BME280;26418;50.070;8.436;2022-07-03T08:06:15;100143.66;;;25.18;44.20
40730;BME280;26418;50.070;8.436;2022-07-03T08:08:41;100155.53;;;25.51;43.13
40730;BME280;26418;50.070;8.436;2022-07-03T08:11:06;100166.59;;;25.76;42.63
40730;BME280;26418;50.070;8.436;2022-07-03T08:13:32;100148.69;;;26.02;41.85
40730;BME280;26418;50.070;8.436;2022-07-03T08:15:57;100139.97;;;26.18;40.46
40730;BME280;26418;50.070;8.436;2022-07-03T08:18:22;100138.03;;;25.97;39.07
40730;BME280;26418;50.070;8.436;2022-07-03T08:20:48;100156.22;;;26.02;40.29
40730;BME280;26418;50.070;8.436;2022-07-03T08:23:16;100152.63;;;26.05;40.06
40730;BME280;26418;50.070;8.436;2022-07-03T08:25:41;100149.84;;;26.27;40.23
40730;BME280;26418;50.070;8.436;2022-07-03T08:28:07;100152.13;;;26.43;39.64
40730;BME280;26418;50.070;8.436;2022-07-03T08:30:33;100143.81;;;26.43;39.75
40730;BME280;26418;50.070;8.436;2022-07-03T08:32:59;100134.69;;;26.46;39.87
40730;BME280;26418;50.070;8.436;2022-07-03T08:35:25;100148.84;;;26.66;39.22
40730;BME280;26418;50.070;8.436;2022-07-03T08:37:51;100149.13;;;26.86;38.98
40730;BME280;26418;50.070;8.436;2022-07-03T08:40:19;100141.59;;;26.87;38.19
40730;BME280;26418;50.070;8.436;2022-07-03T08:43:05;100144.66;;;26.99;38.76
40730;BME280;26418;50.070;8.436;2022-07-03T08:45:30;100149.59;;;27.30;38.08
40730;BME280;26418;50.070;8.436;2022-07-03T08:47:59;100143.34;;;27.64;37.37
40730;BME280;26418;50.070;8.436;2022-07-03T08:50:25;100138.81;;;27.81;36.85
40730;BME280;26418;50.070;8.436;2022-07-03T08:52:51;100144.44;;;28.12;35.92
40730;BME280;26418;50.070;8.436;2022-07-03T08:55:18;100140.19;;;28.00;36.59
40730;BME280;26418;50.070;8.436;2022-07-03T08:57:47;100136.47;;;28.14;36.55
40730;BME280;26418;50.070;8.436;2022-07-03T09:00:16;100140.19;;;28.35;36.58
40730;BME280;26418;50.070;8.436;2022-07-03T09:02:46;100137.84;;;28.61;35.23
40730;BME280;26418;50.070;8.436;2022-07-03T09:05:14;100136.59;;;28.65;35.70
40730;BME280;26418;50.070;8.436;2022-07-03T09:07:41;100142.91;;;28.69;35.70
40730;BME280;26418;50.070;8.436;2022-07-03T09:10:12;100130.00;;;29.07;34.99
40730;BME280;26418;50.070;8.436;2022-07-03T09:12:38;100133.50;;;29.38;34.69
40730;BME280;26418;50.070;8.436;2022-07-03T09:15:05;100133.75;;;29.68;33.52
40730;BME280;26418;50.070;8.436;2022-07-03T09:17:32;100132.41;;;29.76;33.33
40730;BME280;26418;50.070;8.436;2022-07-03T09:19:59;100133.09;;;30.04;33.35
40730;BME280;26418;50.070;8.436;2022-07-03T09:22:30;100127.09;;;30.05;31.99
40730;BME280;26418;50.070;8.436;2022-07-03T09:25:10;100134.50;;;30.32;32.33
40730;BME280;26418;50.070;8.436;2022-07-03T09:27:38;100127.31;;;30.51;31.63
40730;BME280;26418;50.070;8.436;2022-07-03T09:30:07;100124.47;;;30.71;30.73
40730;BME280;26418;50.070;8.436;2022-07-03T09:32:47;100126.41;;;31.08;30.21
40730;BME280;26418;50.070;8.436;2022-07-03T09:40:18;100134.47;;;31.68;28.24
40730;BME280;26418;50.070;8.436;2022-07-03T09:45:22;100126.44;;;31.70;27.85
40730;BME280;26418;50.070;8.436;2022-07-03T09:47:48;100125.69;;;31.82;27.59
40730;BME280;26418;50.070;8.436;2022-07-03T09:50:14;100123.97;;;32.02;26.46
40730;BME280;26418;50.070;8.436;2022-07-03T09:52:46;100118.50;;;31.69;26.10
40730;BME280;26418;50.070;8.436;2022-07-03T09:57:38;100113.13;;;32.17;26.55
40730;BME280;26418;50.070;8.436;2022-07-03T10:00:20;100121.91;;;32.57;26.02
40730;BME280;26418;50.070;8.436;2022-07-03T10:03:05;100111.63;;;32.80;25.52
40730;BME280;26418;50.070;8.436;2022-07-03T10:05:39;100112.00;;;33.17;25.97
40730;BME280;26418;50.070;8.436;2022-07-03T10:08:12;100106.06;;;33.15;24.92
40730;BME280;26418;50.070;8.436;2022-07-03T10:10:40;100110.25;;;33.46;24.96
40730;BME280;26418;50.070;8.436;2022-07-03T10:13:06;100108.63;;;33.80;24.24
40730;BME280;26418;50.070;8.436;2022-07-03T10:15:33;100109.06;;;33.21;24.02
40730;BME280;26418;50.070;8.436;2022-07-03T10:18:04;100101.22;;;32.81;24.81
40730;BME280;26418;50.070;8.436;2022-07-03T10:22:57;100113.47;;;32.19;26.00
40730;BME280;26418;50.070;8.436;2022-07-03T10:25:23;100105.69;;;32.26;25.71
40730;BME280;26418;50.070;8.436;2022-07-03T10:27:49;100113.50;;;32.44;25.82
40730;BME280;26418;50.070;8.436;2022-07-03T10:30:17;100101.19;;;32.68;25.20
40730;BME280;26418;50.070;8.436;2022-07-03T10:32:45;100108.25;;;32.98;24.95
40730;BME280;26418;50.070;8.436;2022-07-03T10:35:16;100114.00;;;33.17;24.38
40730;BME280;26418;50.070;8.436;2022-07-03T10:43:43;100104.13;;;34.05;23.85
40730;BME280;26418;50.070;8.436;2022-07-03T10:46:43;100106.06;;;34.48;22.87
40730;BME280;26418;50.070;8.436;2022-07-03T10:49:09;100101.47;;;34.73;22.15
40730;BME280;26418;50.070;8.436;2022-07-03T10:52:02;100093.22;;;34.79;22.35
40730;BME280;26418;50.070;8.436;2022-07-03T10:54:33;100090.94;;;34.46;22.39
40730;BME280;26418;50.070;8.436;2022-07-03T11:07:35;100091.59;;;34.59;21.79
40730;BME280;26418;50.070;8.436;2022-07-03T11:15:49;100087.44;;;34.01;21.58
40730;BME280;26418;50.070;8.436;2022-07-03T11:18:19;100086.97;;;34.34;21.72
40730;BME280;26418;50.070;8.436;2022-07-03T11:25:57;100073.31;;;35.14;21.09
40730;BME280;26418;50.070;8.436;2022-07-03T11:38:41;100062.81;;;35.05;21.38
40730;BME280;26418;50.070;8.436;2022-07-03T11:41:09;100056.09;;;34.93;21.32
40730;BME280;26418;50.070;8.436;2022-07-03T11:43:35;100049.88;;;34.99;21.54
40730;BME280;26418;50.070;8.436;2022-07-03T11:46:01;100051.16;;;35.25;20.89
40730;BME280;26418;50.070;8.436;2022-07-03T11:48:27;100052.34;;;35.62;20.83
40730;BME280;26418;50.070;8.436;2022-07-03T11:50:59;100040.44;;;36.28;20.88
40730;BME280;26418;50.070;8.436;2022-07-03T11:53:26;100045.25;;;36.71;19.45
40730;BME280;26418;50.070;8.436;2022-07-03T11:55:55;100037.31;;;37.08;19.25
40730;BME280;26418;50.070;8.436;2022-07-03T11:58:21;100041.03;;;37.15;19.02
40730;BME280;26418;50.070;8.436;2022-07-03T12:00:47;100045.44;;;37.31;19.11
40730;BME280;26418;50.070;8.436;2022-07-03T12:03:22;100042.00;;;37.26;19.10
40730;BME280;26418;50.070;8.436;2022-07-03T12:05:58;100041.09;;;36.81;19.95
40730;BME280;26418;50.070;8.436;2022-07-03T12:08:26;100046.84;;;36.87;19.94
40730;BME280;26418;50.070;8.436;2022-07-03T12:11:00;100026.19;;;36.90;19.95
40730;BME280;26418;50.070;8.436;2022-07-03T12:13:26;100036.63;;;37.38;19.76
40730;BME280;26418;50.070;8.436;2022-07-03T12:15:51;100025.44;;;37.88;19.07
40730;BME280;26418;50.070;8.436;2022-07-03T12:18:18;100025.25;;;38.28;18.49
40730;BME280;26418;50.070;8.436;2022-07-03T12:20:43;100027.06;;;37.80;18.19
40730;BME280;26418;50.070;8.436;2022-07-03T12:23:09;100021.44;;;37.50;18.94
40730;BME280;26418;50.070;8.436;2022-07-03T12:25:41;100017.94;;;37.40;18.27
40730;BME280;26418;50.070;8.436;2022-07-03T12:28:08;100022.81;;;37.40;18.59
40730;BME280;26418;50.070;8.436;2022-07-03T12:30:35;100022.81;;;37.85;18.31
40730;BME280;26418;50.070;8.436;2022-07-03T12:33:01;100009.47;;;38.36;17.81
40730;BME280;26418;50.070;8.436;2022-07-03T12:35:28;100006.38;;;38.55;17.32
40730;BME280;26418;50.070;8.436;2022-07-03T12:37:54;100017.97;;;38.77;17.65
40730;BME280;26418;50.070;8.436;2022-07-03T12:40:19;100018.09;;;38.47;17.20
40730;BME280;26418;50.070;8.436;2022-07-03T12:42:48;100016.00;;;38.27;17.94
40730;BME280;26418;50.070;8.436;2022-07-03T12:45:18;100015.13;;;38.21;17.77
40730;BME280;26418;50.070;8.436;2022-07-03T12:47:45;100000.03;;;38.24;17.89
40730;BME280;26418;50.070;8.436;2022-07-03T12:50:11;100012.59;;;38.23;17.21
40730;BME280;26418;50.070;8.436;2022-07-03T12:52:55;100008.22;;;37.56;18.27
40730;BME280;26418;50.070;8.436;2022-07-03T12:55:28;99991.50;;;36.74;18.78
40730;BME280;26418;50.070;8.436;2022-07-03T12:58:11;99995.72;;;36.55;18.90
40730;BME280;26418;50.070;8.436;2022-07-03T13:00:55;100000.94;;;36.95;19.10
40730;BME280;26418;50.070;8.436;2022-07-03T13:05:53;99999.25;;;36.40;19.05
40730;BME280;26418;50.070;8.436;2022-07-03T13:08:18;99991.41;;;36.11;19.03
40730;BME280;26418;50.070;8.436;2022-07-03T13:10:44;99991.53;;;35.73;20.02
40730;BME280;26418;50.070;8.436;2022-07-03T13:13:09;99991.47;;;34.93;20.36
40730;BME280;26418;50.070;8.436;2022-07-03T13:15:35;99983.97;;;34.22;20.91
40730;BME280;26418;50.070;8.436;2022-07-03T13:18:01;99979.41;;;33.74;21.82
40730;BME280;26418;50.070;8.436;2022-07-03T13:22:54;99967.84;;;33.72;22.37
40730;BME280;26418;50.070;8.436;2022-07-03T13:25:19;99978.31;;;34.03;22.20
40730;BME280;26418;50.070;8.436;2022-07-03T13:27:45;99988.28;;;34.04;22.33
40730;BME280;26418;50.070;8.436;2022-07-03T13:30:12;100001.81;;;33.96;21.79
40730;BME280;26418;50.070;8.436;2022-07-03T13:32:38;99973.72;;;33.87;22.05
40730;BME280;26418;50.070;8.436;2022-07-03T13:35:04;99991.44;;;33.84;21.89
40730;BME280;26418;50.070;8.436;2022-07-03T13:37:30;99994.81;;;33.69;22.49
40730;BME280;26418;50.070;8.436;2022-07-03T13:39:55;99990.97;;;33.54;22.82
40730;BME280;26418;50.070;8.436;2022-07-03T13:42:21;99984.69;;;33.41;22.56
40730;BME280;26418;50.070;8.436;2022-07-03T13:44:46;99986.69;;;33.40;23.02
40730;BME280;26418;50.070;8.436;2022-07-03T13:47:12;99986.69;;;33.40;22.56
40730;BME280;26418;50.070;8.436;2022-07-03T13:49:38;99983.56;;;33.38;22.65
40730;BME280;26418;50.070;8.436;2022-07-03T13:52:03;99970.38;;;33.26;22.72
40730;BME280;26418;50.070;8.436;2022-07-03T13:54:29;99966.72;;;33.38;22.94
40730;BME280;26418;50.070;8.436;2022-07-03T13:56:54;99973.34;;;33.44;22.55
40730;BME280;26418;50.070;8.436;2022-07-03T13:59:19;99969.28;;;33.45;22.45
40730;BME280;26418;50.070;8.436;2022-07-03T14:01:46;99977.31;;;33.34;22.71
40730;BME280;26418;50.070;8.436;2022-07-03T14:04:11;99976.38;;;33.15;22.90
40730;BME280;26418;50.070;8.436;2022-07-03T14:06:37;99974.84;;;32.79;23.05
40730;BME280;26418;50.070;8.436;2022-07-03T14:09:03;99969.16;;;32.56;23.41
40730;BME280;26418;50.070;8.436;2022-07-03T14:11:28;99970.38;;;32.55;24.10
40730;BME280;26418;50.070;8.436;2022-07-03T14:13:53;99971.56;;;32.80;23.75
40730;BME280;26418;50.070;8.436;2022-07-03T14:16:19;99964.34;;;32.92;23.28